Date,TemperatureHighF,TemperatureAvgF,TemperatureLowF,DewpointHighF,DewpointAvgF,DewpointLowF,HumidityHigh,HumidityAvg,HumidityLow,PressureMaxIn,PressureMinIn,WindSpeedMaxMPH,WindSpeedAvgMPH,GustSpeedMaxMPH,PrecipitationSumIn
2013-2-1,9,-2,-11,-100,-100,-100,0,0,100,0.00,40.00,0,-999,0,0.00
2013-2-2,16,10,5,-100,-100,-100,0,0,100,0.00,40.00,0,-999,0,0.00
2013-2-3,19,14,9,-100,-100,-100,0,0,100,0.00,40.00,0,-999,0,0.00
2013-2-4,18,14,10,-100,-100,-100,0,0,100,0.00,40.00,0,-999,0,0.00
2013-2-5,32,23,18,-100,-100,-100,0,0,100,0.00,40.00,0,-999,0,0.00
2013-2-6,34,27,14,-100,-100,-100,0,0,100,0.00,40.00,0,-999,0,0.00
2013-2-7,34,26,23,-100,-100,-100,0,0,100,0.00,40.00,0,-999,0,0.00
2013-2-8,27,24,23,-100,-100,-100,0,0,100,0.00,40.00,0,-999,0,0.00
2013-2-9,28,26,23,-100,-100,-100,0,0,100,0.00,40.00,0,-999,0,0.00
2013-2-10,36,32,28,-100,-100,-100,0,0,100,0.00,40.00,0,-999,0,0.00
2013-2-11,27,22,19,-100,-100,-100,0,0,100,0.00,40.00,0,-999,0,0.00
2013-2-12,34,26,18,-100,-100,-100,0,0,100,0.00,40.00,0,-999,0,0.00
2013-2-13,39,30,23,-100,-100,-100,0,0,100,0.00,40.00,0,-999,0,0.00
2013-2-14,34,28,18,-100,-100,-100,0,0,100,0.00,40.00,0,-999,0,0.00
2013-2-15,18,14,9,-100,-100,-100,0,0,100,0.00,40.00,0,-999,0,0.00
2013-2-16,25,15,9,-100,-100,-100,0,0,100,0.00,40.00,0,-999,0,0.00
2013-2-17,32,23,14,-100,-100,-100,0,0,100,0.00,40.00,0,-999,0,0.00
2013-2-18,32,19,3,-100,-100,-100,0,0,100,0.00,40.00,0,-999,0,0.00
2013-2-19,3,-1,-4,-100,-100,-100,0,0,100,0.00,40.00,0,-999,0,0.00
2013-2-20,18,4,-6,-100,-100,-100,0,0,100,0.00,40.00,0,-999,0,0.00
2013-2-21,21,16,9,-100,-100,-100,0,0,100,0.00,40.00,0,-999,0,0.00
2013-2-22,25,21,18,-100,-100,-100,0,0,100,0.00,40.00,0,-999,0,0.00
2013-2-23,23,16,9,-100,-100,-100,0,0,100,0.00,40.00,0,-999,0,0.00
2013-2-24,28,22,1,-100,-100,-100,0,0,100,0.00,40.00,0,-999,0,0.00
2013-2-25,32,28,23,-100,-100,-100,0,0,100,0.00,40.00,0,-999,0,0.00
2013-2-26,28,25,21,-100,-100,-100,0,0,100,0.00,40.00,0,-999,0,0.00
2013-2-27,30,27,23,-100,-100,-100,0,0,100,0.00,40.00,0,-999,0,0.00
2013-2-28,28,24,19,-100,-100,-100,0,0,100,0.00,40.00,0,-999,0,0.00